createdAt,value
2018-11-28T00:03:05.686Z,14.87
2018-11-28T00:07:58.996Z,13.32
2018-11-28T00:12:52.494Z,15.70
2018-11-28T00:17:45.768Z,16.00
2018-11-28T00:22:39.103Z,16.57
2018-11-28T00:27:32.422Z,15.00
2018-11-28T00:32:26.768Z,15.65
2018-11-28T00:37:20.048Z,16.10
2018-11-28T00:42:13.367Z,15.05
2018-11-28T00:47:06.673Z,17.40
2018-11-28T00:51:59.949Z,15.40
2018-11-28T00:56:53.236Z,15.88
2018-11-28T01:01:46.464Z,15.65
2018-11-28T01:06:39.780Z,15.60
2018-11-28T01:11:33.047Z,15.98
2018-11-28T01:16:26.395Z,16.73
2018-11-28T01:21:19.643Z,16.60
2018-11-28T01:26:12.940Z,16.15
2018-11-28T01:31:06.673Z,16.87
2018-11-28T01:35:59.956Z,16.00
2018-11-28T01:40:53.595Z,17.15
2018-11-28T01:45:46.857Z,15.90
2018-11-28T01:50:40.154Z,15.40
2018-11-28T01:55:33.439Z,17.40
2018-11-28T02:00:27.143Z,15.98
2018-11-28T02:05:20.458Z,16.85
2018-11-28T02:10:15.505Z,15.83
2018-11-28T02:15:11.137Z,16.20
2018-11-28T02:20:07.771Z,16.95
2018-11-28T02:25:01.694Z,18.15
2018-11-28T02:29:54.971Z,16.05
2018-11-28T02:34:48.277Z,16.65
2018-11-28T02:39:41.562Z,16.00
2018-11-28T02:44:34.838Z,17.27
2018-11-28T02:49:28.127Z,16.82
2018-11-28T02:54:22.083Z,15.30
2018-11-28T02:59:15.309Z,16.00
2018-11-28T03:04:08.606Z,16.37
2018-11-28T03:09:01.903Z,16.45
2018-11-28T03:13:55.168Z,15.35
2018-11-28T03:18:48.458Z,17.87
2018-11-28T03:23:41.767Z,16.80
2018-11-28T03:28:35.065Z,16.62
2018-11-28T03:33:28.418Z,17.07
2018-11-28T03:38:21.723Z,17.40
2018-11-28T03:43:15.019Z,15.90
2018-11-28T03:48:08.281Z,16.15
2018-11-28T03:53:01.564Z,16.50
2018-11-28T03:57:54.827Z,18.02
2018-11-28T04:02:49.765Z,17.40
2018-11-28T04:07:43.057Z,16.67
2018-11-28T04:12:37.568Z,17.85
2018-11-28T04:17:30.863Z,17.02
2018-11-28T04:22:24.125Z,17.62
2018-11-28T04:27:17.401Z,16.80
2018-11-28T04:32:10.693Z,17.50
2018-11-28T04:37:03.962Z,16.35
2018-11-28T04:43:00.319Z,18.20
2018-11-28T04:47:55.079Z,17.77
2018-11-28T04:52:48.416Z,16.37
2018-11-28T04:57:41.778Z,18.00
2018-11-28T05:02:35.120Z,18.30
2018-11-28T05:07:29.603Z,18.80
2018-11-28T05:12:22.970Z,17.32
2018-11-28T05:17:16.337Z,17.20
2018-11-28T05:22:09.613Z,19.45
2018-11-28T05:27:03.011Z,17.73
2018-11-28T05:31:56.307Z,18.30
2018-11-28T05:36:49.559Z,19.05
2018-11-28T05:41:43.918Z,18.75
2018-11-28T05:46:37.216Z,18.25
2018-11-28T05:51:31.595Z,19.27
2018-11-28T05:56:24.838Z,19.50
2018-11-28T06:01:18.709Z,18.00
2018-11-28T06:06:12.024Z,18.77
2018-11-28T06:11:05.936Z,18.45
2018-11-28T06:15:59.187Z,18.35
2018-11-28T06:20:52.551Z,19.27
2018-11-28T06:25:45.850Z,19.40
2018-11-28T06:30:39.081Z,18.23
2018-11-28T06:35:32.372Z,19.17
2018-11-28T06:40:25.631Z,20.27
2018-11-28T06:45:20.877Z,20.70
2018-11-28T06:50:15.703Z,19.95
2018-11-28T06:55:12.072Z,19.52
2018-11-28T07:00:11.264Z,18.48
2018-11-28T07:05:05.463Z,19.90
2018-11-28T07:09:58.859Z,18.73
2018-11-28T07:14:52.103Z,18.45
2018-11-28T07:19:45.373Z,18.48
2018-11-28T07:24:38.636Z,17.95
2018-11-28T07:29:31.883Z,17.92
2018-11-28T07:34:25.184Z,19.67
2018-11-28T07:39:18.441Z,18.90
2018-11-28T07:44:11.693Z,18.70
2018-11-28T07:49:05.005Z,19.23
2018-11-28T07:53:58.343Z,19.77
2018-11-28T07:58:51.638Z,18.05
2018-11-28T08:03:44.963Z,19.37
2018-11-28T08:08:38.254Z,18.87
2018-11-28T08:13:31.562Z,19.17
2018-11-28T08:18:24.902Z,19.95
2018-11-28T08:23:18.178Z,19.57
2018-11-28T08:28:11.455Z,18.90
2018-11-28T08:33:04.907Z,19.12
2018-11-28T08:37:58.156Z,20.32
2018-11-28T08:42:51.784Z,19.35
2018-11-28T08:47:46.720Z,19.45
2018-11-28T08:52:40.025Z,17.80
2018-11-28T08:57:33.324Z,19.90
2018-11-28T09:02:26.605Z,19.10
2018-11-28T09:07:19.909Z,18.10
2018-11-28T09:12:13.170Z,18.48
2018-11-28T09:17:06.777Z,18.85
2018-11-28T09:22:00.097Z,17.57
2018-11-28T09:26:53.398Z,18.67
2018-11-28T09:31:46.710Z,17.87
2018-11-28T09:36:39.942Z,18.10
2018-11-28T09:41:33.219Z,18.73
2018-11-28T09:46:26.493Z,17.98
2018-11-28T09:51:19.807Z,19.02
2018-11-28T09:56:13.161Z,18.85
2018-11-28T10:01:06.516Z,17.62
2018-11-28T10:05:59.787Z,19.92
2018-11-28T10:10:53.055Z,19.32
2018-11-28T10:15:46.432Z,19.50
2018-11-28T10:20:39.677Z,17.73
2018-11-28T10:25:33.004Z,18.10
2018-11-28T10:30:29.235Z,17.73
2018-11-28T10:35:22.434Z,15.85
2018-11-28T10:40:17.814Z,17.37
2018-11-28T10:45:13.725Z,16.93
2018-11-28T10:50:11.178Z,16.60
2018-11-28T10:55:05.773Z,17.35
2018-11-28T10:59:59.136Z,16.40
2018-11-28T11:04:58.275Z,16.27
2018-11-28T11:09:57.241Z,15.80
2018-11-28T11:14:50.564Z,16.65
2018-11-28T11:19:43.903Z,16.35
2018-11-28T11:24:37.255Z,17.48
2018-11-28T11:29:30.552Z,15.95
2018-11-28T11:34:23.835Z,15.72
2018-11-28T11:39:17.142Z,15.83
2018-11-28T11:44:10.498Z,16.02
2018-11-28T11:49:04.200Z,14.95
2018-11-28T11:53:57.555Z,16.07
2018-11-28T11:58:50.895Z,16.85
2018-11-28T12:03:44.244Z,17.15
2018-11-28T12:08:37.559Z,15.65
2018-11-28T12:13:30.895Z,15.63
2018-11-28T12:18:24.235Z,15.28
2018-11-28T12:23:17.610Z,16.02
2018-11-28T12:28:11.012Z,15.53
2018-11-28T12:33:04.581Z,14.63
2018-11-28T12:37:59.903Z,15.40
2018-11-28T12:42:53.400Z,15.60
2018-11-28T12:47:47.615Z,14.80
2018-11-28T12:52:40.962Z,15.23
2018-11-28T12:57:34.257Z,15.55
2018-11-28T13:02:27.511Z,13.72
2018-11-28T13:07:20.741Z,16.07
2018-11-28T13:12:14.129Z,15.15
2018-11-28T13:17:07.482Z,13.62
2018-11-28T13:22:00.781Z,13.60
2018-11-28T13:26:54.058Z,14.00
2018-11-28T13:31:47.393Z,14.58
2018-11-28T13:36:40.674Z,13.65
2018-11-28T13:41:33.948Z,13.05
2018-11-28T13:46:27.295Z,13.50
2018-11-28T13:51:20.557Z,14.33
2018-11-28T13:56:58.153Z,13.45
2018-11-28T14:01:08.375Z,12.47
2018-11-28T14:06:01.641Z,12.68
2018-11-28T14:10:55.453Z,13.30
2018-11-28T14:15:48.718Z,14.20
2018-11-28T14:20:42.107Z,12.70
2018-11-28T14:25:35.619Z,13.10
2018-11-28T14:30:28.912Z,14.38
2018-11-28T14:35:22.982Z,14.40
2018-11-28T14:40:19.603Z,13.95
2018-11-28T14:45:15.769Z,13.32
2018-11-28T14:50:15.547Z,14.23
2018-11-28T14:55:13.117Z,14.33
2018-11-28T15:00:19.748Z,14.58
2018-11-28T15:05:36.294Z,15.45
2018-11-28T15:11:07.019Z,15.65
2018-11-28T15:16:00.826Z,15.72
2018-11-28T15:20:54.134Z,14.90
2018-11-28T15:25:47.491Z,14.73
2018-11-28T15:30:40.838Z,15.95
2018-11-28T15:35:34.173Z,14.90
2018-11-28T15:40:27.475Z,16.32
2018-11-28T15:45:20.789Z,16.17
2018-11-28T15:50:14.167Z,16.52
2018-11-28T15:55:10.284Z,17.85
2018-11-28T16:00:04.608Z,16.75
2018-11-28T16:04:57.962Z,17.20
2018-11-28T16:09:56.834Z,18.48
2018-11-28T16:14:50.094Z,19.80
2018-11-28T16:19:43.393Z,19.27
2018-11-28T16:24:36.794Z,19.93
2018-11-28T16:29:30.109Z,20.23
2018-11-28T16:34:23.355Z,21.73
2018-11-28T16:39:16.660Z,21.52
2018-11-28T16:44:10.056Z,20.37
2018-11-28T16:49:03.460Z,21.52
2018-11-28T16:53:57.194Z,20.43
2018-11-28T16:58:50.496Z,20.02
2018-11-28T17:03:43.999Z,20.62
2018-11-28T17:08:37.290Z,20.08
2018-11-28T17:13:30.567Z,19.27
2018-11-28T17:18:23.794Z,19.95
2018-11-28T17:23:17.089Z,20.72
2018-11-28T17:28:10.987Z,19.62
2018-11-28T17:33:05.110Z,19.90
2018-11-28T17:37:58.363Z,19.98
2018-11-28T17:42:53.642Z,20.35
2018-11-28T17:47:46.982Z,20.70
2018-11-28T17:52:40.724Z,20.55
2018-11-28T17:57:34.005Z,19.87
2018-11-28T18:02:27.302Z,19.30
2018-11-28T18:07:20.550Z,18.25
2018-11-28T18:12:13.793Z,18.95
2018-11-28T18:17:07.250Z,17.73
2018-11-28T18:22:00.543Z,17.87
2018-11-28T18:26:53.842Z,18.12
2018-11-28T18:31:47.488Z,18.95
2018-11-28T18:36:40.744Z,17.45
2018-11-28T18:41:34.036Z,16.42
2018-11-28T18:46:27.325Z,16.67
2018-11-28T18:51:20.624Z,17.07
2018-11-28T18:56:13.907Z,15.90
2018-11-28T19:01:07.207Z,16.20
2018-11-28T19:06:00.527Z,14.87
2018-11-28T19:10:53.869Z,15.83
2018-11-28T19:15:48.227Z,15.55
2018-11-28T19:20:41.511Z,15.05
2018-11-28T19:25:34.796Z,13.78
2018-11-28T19:30:35.436Z,13.60
2018-11-28T19:35:28.945Z,13.72
2018-11-28T19:40:35.636Z,11.68
2018-11-28T19:45:29.013Z,13.05
2018-11-28T19:50:26.018Z,13.38
2018-11-28T19:55:19.382Z,13.15
2018-11-28T20:00:17.688Z,13.68
2018-11-28T20:05:11.120Z,13.32
2018-11-28T20:10:08.019Z,12.25
2018-11-28T20:15:01.257Z,12.50
2018-11-28T20:19:55.274Z,11.73
2018-11-28T20:24:48.541Z,12.07
2018-11-28T20:29:41.891Z,11.60
2018-11-28T20:34:35.176Z,11.68
2018-11-28T20:39:28.500Z,10.78
2018-11-28T20:44:21.785Z,10.15
2018-11-28T20:49:15.037Z,10.53
2018-11-28T20:54:08.341Z,10.45
2018-11-28T20:59:01.687Z,10.10
2018-11-28T21:03:54.990Z,10.38
2018-11-28T21:08:48.309Z,10.35
2018-11-28T21:13:41.593Z,8.98
2018-11-28T21:18:34.869Z,9.73
2018-11-28T21:23:28.177Z,9.85
2018-11-28T21:28:21.787Z,9.73
2018-11-28T21:33:15.325Z,9.73
2018-11-28T21:38:09.071Z,9.18
2018-11-28T21:43:02.403Z,9.23
2018-11-28T21:47:57.179Z,8.40
2018-11-28T21:52:50.521Z,8.20
2018-11-28T21:57:43.868Z,8.43
2018-11-28T22:02:37.148Z,7.78
2018-11-28T22:07:30.399Z,8.78
2018-11-28T22:12:23.708Z,7.87
2018-11-28T22:17:17.040Z,7.95
2018-11-28T22:22:10.318Z,7.83
2018-11-28T22:27:03.634Z,7.70
2018-11-28T22:31:56.985Z,7.80
2018-11-28T22:36:50.286Z,7.65
2018-11-28T22:41:43.572Z,7.60
2018-11-28T22:46:37.145Z,8.25
2018-11-28T22:51:30.467Z,7.65
2018-11-28T22:56:23.762Z,7.55
2018-11-28T23:01:21.695Z,7.42
2018-11-28T23:06:14.961Z,7.95
2018-11-28T23:11:08.184Z,7.72
2018-11-28T23:16:01.616Z,7.08
2018-11-28T23:20:54.953Z,7.22
2018-11-28T23:25:48.306Z,6.83
2018-11-28T23:30:41.600Z,7.10
2018-11-28T23:35:34.966Z,6.33
2018-11-28T23:40:28.212Z,6.65
2018-11-28T23:45:21.818Z,6.35
2018-11-28T23:50:17.277Z,6.67
2018-11-28T23:55:18.158Z,6.03
